CheckWX is a tool to help pilots better visualize weather data.  It is not intended as a substitute for an official pre-flight weather briefing.

23:29:35 UTC

KILG METAR
New Castle Airport
Wilmington, Delaware, USA
Current

39 mins ago

KILG 112251Z AUTO 23010KT 10SM CLR 29/20 A2968 RMK AO2 SLP049 T02940200
Observed
Jul-11 @ 22:51 UTC
Wind
  • 230° at 10 KTS
Visibility
10 SM
Flight Rules
VFR
Cloud Levels
  • Clear skies
Temperature
29°C / 84°F
Dewpoint
20°C / 68°F
Humidity
58%
Altimeter
29.68" Hg
Pressure
1005.12 hPa
Previous

2 hours ago

KILG 112151Z AUTO 24008KT 10SM SCT075 31/20 A2967 RMK AO2 SLP044 T03060200
Observed
Jul-11 @ 21:51 UTC
Wind
  • 240° at 8 KTS
Visibility
10 SM
Flight Rules
VFR
Cloud Levels
  • Scattered at 7,500' AGL
Temperature
31°C / 88°F
Dewpoint
20°C / 68°F
Humidity
52%
Altimeter
29.67" Hg
Pressure
1004.72 hPa
Previous

3 hours ago

KILG 112051Z AUTO 23011KT 10SM BKN090 31/21 A2967 RMK AO2 SLP044 T03110211 56012
Observed
Jul-11 @ 20:51 UTC
Wind
  • 230° at 11 KTS
Visibility
10 SM
Flight Rules
VFR
Cloud Levels
  • Broken at 9,000' AGL
Temperature
31°C / 88°F
Dewpoint
21°C / 70°F
Humidity
55%
Altimeter
29.67" Hg
Pressure
1004.72 hPa